createdAt,value
2023-04-17T00:00:55.735Z,7.05
2023-04-17T00:03:58.798Z,7.04
2023-04-17T00:07:03.579Z,7.05
2023-04-17T00:10:06.695Z,7.02
2023-04-17T00:13:08.282Z,7.00
2023-04-17T00:16:13.874Z,6.98
2023-04-17T00:19:17.186Z,7.02
2023-04-17T00:22:18.824Z,7.03
2023-04-17T00:25:20.760Z,7.05
2023-04-17T00:28:22.633Z,7.08
2023-04-17T00:31:24.452Z,7.10
2023-04-17T00:34:28.019Z,7.11
2023-04-17T00:37:29.679Z,7.11
2023-04-17T00:40:31.387Z,7.10
2023-04-17T00:43:33.083Z,7.08
2023-04-17T00:46:34.651Z,7.06
2023-04-17T00:49:38.766Z,7.02
2023-04-17T00:52:40.560Z,7.02
2023-04-17T00:55:43.090Z,7.01
2023-04-17T00:58:45.046Z,7.01
2023-04-17T01:01:47.128Z,7.01
2023-04-17T01:04:50.227Z,7.01
2023-04-17T01:07:54.011Z,7.00
2023-04-17T01:10:55.621Z,7.00
2023-04-17T01:13:57.312Z,6.98
2023-04-17T01:16:59.597Z,6.98
2023-04-17T01:20:06.514Z,6.98
2023-04-17T01:23:08.312Z,6.96
2023-04-17T01:26:12.105Z,6.95
2023-04-17T01:29:13.875Z,6.91
2023-04-17T01:32:16.658Z,6.88
2023-04-17T01:35:18.304Z,6.91
2023-04-17T01:38:19.865Z,6.88
2023-04-17T01:41:23.027Z,6.87
2023-04-17T01:44:24.678Z,6.87
2023-04-17T01:47:26.279Z,6.86
2023-04-17T01:50:27.963Z,6.83
2023-04-17T01:53:31.107Z,6.81
2023-04-17T01:56:34.716Z,6.80
2023-04-17T01:59:36.536Z,6.80
2023-04-17T02:02:38.308Z,6.82
2023-04-17T02:05:40.095Z,6.80
2023-04-17T02:08:41.886Z,6.77
2023-04-17T02:11:45.607Z,6.75
2023-04-17T02:14:47.160Z,6.72
2023-04-17T02:17:48.947Z,6.71
2023-04-17T02:20:50.533Z,6.69
2023-04-17T02:23:52.142Z,6.67
2023-04-17T02:26:56.470Z,6.72
2023-04-17T02:29:58.067Z,6.73
2023-04-17T02:33:00.236Z,6.68
2023-04-17T02:36:02.216Z,6.65
2023-04-17T02:39:12.123Z,6.66
2023-04-17T02:42:16.513Z,6.65
2023-04-17T02:45:18.140Z,6.64
2023-04-17T02:48:19.762Z,6.65
2023-04-17T02:51:21.433Z,6.66
2023-04-17T02:54:23.441Z,6.68
2023-04-17T02:57:26.550Z,6.69
2023-04-17T03:00:28.870Z,6.71
2023-04-17T03:03:35.618Z,6.69
2023-04-17T03:06:40.757Z,6.73
2023-04-17T03:09:42.801Z,6.73
2023-04-17T03:12:46.120Z,6.66
2023-04-17T03:15:48.167Z,6.62
2023-04-17T03:18:49.774Z,6.58
2023-04-17T03:21:51.633Z,6.52
2023-04-17T03:24:53.165Z,6.47
2023-04-17T03:27:57.950Z,6.42
2023-04-17T03:31:07.542Z,6.39
2023-04-17T03:34:10.285Z,6.36
2023-04-17T03:37:12.632Z,6.34
2023-04-17T03:40:14.172Z,6.33
2023-04-17T03:43:20.175Z,6.29
2023-04-17T03:46:21.862Z,6.27
2023-04-17T03:49:23.871Z,6.25
2023-04-17T03:52:27.193Z,6.24
2023-04-17T03:55:32.648Z,6.20
2023-04-17T03:58:36.127Z,6.21
2023-04-17T04:01:39.149Z,6.22
2023-04-17T04:04:50.793Z,6.25
2023-04-17T04:07:52.530Z,6.19
2023-04-17T04:11:09.586Z,6.19
2023-04-17T04:14:15.385Z,6.17
2023-04-17T04:17:21.666Z,6.09
2023-04-17T04:20:23.655Z,6.07
2023-04-17T04:23:31.103Z,6.04
2023-04-17T04:26:33.366Z,6.00
2023-04-17T04:29:37.945Z,6.01
2023-04-17T04:32:45.747Z,6.03
2023-04-17T04:35:48.669Z,6.05
2023-04-17T04:38:50.666Z,6.08
2023-04-17T04:42:06.189Z,6.12
2023-04-17T04:45:20.689Z,6.08
2023-04-17T04:48:22.404Z,6.07
2023-04-17T04:51:24.165Z,6.02
2023-04-17T04:54:26.020Z,6.01
2023-04-17T04:57:31.970Z,5.99
2023-04-17T05:00:37.933Z,5.97
2023-04-17T05:03:40.896Z,5.95
2023-04-17T05:06:44.853Z,5.94
2023-04-17T05:09:47.481Z,5.95
2023-04-17T05:12:51.739Z,5.98
2023-04-17T05:15:55.029Z,6.00
2023-04-17T05:19:01.325Z,5.95
2023-04-17T05:22:29.795Z,5.97
2023-04-17T05:25:43.151Z,5.97
2023-04-17T05:28:45.405Z,5.97
2023-04-17T05:31:52.928Z,5.97
2023-04-17T05:35:17.586Z,6.00
2023-04-17T05:38:19.378Z,6.00
2023-04-17T05:41:21.580Z,6.00
2023-04-17T05:44:23.096Z,5.99
2023-04-17T05:47:26.038Z,5.98
2023-04-17T05:50:28.297Z,6.00
2023-04-17T05:53:31.179Z,6.01
2023-04-17T05:56:34.106Z,6.04
2023-04-17T05:59:36.680Z,6.10
2023-04-17T06:02:41.227Z,6.11
2023-04-17T06:05:43.079Z,6.09
2023-04-17T06:08:44.999Z,6.13
2023-04-17T06:11:46.858Z,6.15
2023-04-17T06:14:48.485Z,6.18
2023-04-17T06:17:55.045Z,6.18
2023-04-17T06:20:56.766Z,6.18
2023-04-17T06:23:58.284Z,6.21
2023-04-17T06:26:59.902Z,6.24
2023-04-17T06:30:01.821Z,6.21
2023-04-17T06:33:08.419Z,6.29
2023-04-17T06:36:13.425Z,6.36
2023-04-17T06:39:23.156Z,6.45
2023-04-17T06:42:25.054Z,6.58
2023-04-17T06:45:34.328Z,6.62
2023-04-17T06:48:37.180Z,6.67
2023-04-17T06:51:38.801Z,6.69
2023-04-17T06:54:40.360Z,6.75
2023-04-17T06:57:42.227Z,6.83
2023-04-17T07:00:44.008Z,6.88
2023-04-17T07:03:47.392Z,6.91
2023-04-17T07:06:49.297Z,6.92
2023-04-17T07:09:51.533Z,6.93
2023-04-17T07:12:53.028Z,6.94
2023-04-17T07:15:55.233Z,7.01
2023-04-17T07:18:58.420Z,7.07
2023-04-17T07:22:00.796Z,7.13
2023-04-17T07:25:02.321Z,7.19
2023-04-17T07:28:04.622Z,7.45
2023-04-17T07:31:08.800Z,7.85
2023-04-17T07:34:11.736Z,8.09
2023-04-17T07:37:15.318Z,7.99
2023-04-17T07:40:17.384Z,8.04
2023-04-17T07:43:18.872Z,8.21
2023-04-17T07:46:20.485Z,8.48
2023-04-17T07:49:23.600Z,8.60
2023-04-17T07:52:25.335Z,8.42
2023-04-17T07:55:26.847Z,8.43
2023-04-17T07:58:28.351Z,8.46
2023-04-17T08:01:29.951Z,8.54
2023-04-17T08:04:33.270Z,8.60
2023-04-17T08:07:35.436Z,8.62
2023-04-17T08:10:37.039Z,8.71
2023-04-17T08:13:38.548Z,8.71
2023-04-17T08:16:40.393Z,8.71
2023-04-17T08:19:43.297Z,8.62
2023-04-17T08:22:46.053Z,8.61
2023-04-17T08:25:47.770Z,8.91
2023-04-17T08:28:49.571Z,9.22
2023-04-17T08:31:57.429Z,9.32
2023-04-17T08:35:11.527Z,9.37
2023-04-17T08:38:14.879Z,9.21
2023-04-17T08:41:23.206Z,9.34
2023-04-17T08:44:25.182Z,9.34
2023-04-17T08:47:27.192Z,9.23
2023-04-17T08:50:30.870Z,9.36
2023-04-17T08:53:32.490Z,9.53
2023-04-17T08:56:33.964Z,9.55
2023-04-17T08:59:35.655Z,9.60
2023-04-17T09:02:51.723Z,9.57
2023-04-17T09:05:57.172Z,9.62
2023-04-17T09:09:00.253Z,9.81
2023-04-17T09:12:08.494Z,9.99
2023-04-17T09:15:16.781Z,10.05
2023-04-17T09:18:23.306Z,10.20
2023-04-17T09:21:27.945Z,10.18
2023-04-17T09:24:33.053Z,10.33
2023-04-17T09:27:34.763Z,10.51
2023-04-17T09:30:37.158Z,10.60
2023-04-17T09:33:55.519Z,10.63
2023-04-17T09:36:58.861Z,10.81
2023-04-17T09:40:01.263Z,10.69
2023-04-17T09:43:04.057Z,10.74
2023-04-17T09:46:06.470Z,10.70
2023-04-17T09:49:09.941Z,10.62
2023-04-17T09:52:13.495Z,10.77
2023-04-17T09:55:16.385Z,10.87
2023-04-17T09:58:18.111Z,10.68
2023-04-17T10:01:20.129Z,10.90
2023-04-17T10:04:23.325Z,10.84
2023-04-17T10:07:29.996Z,10.89
2023-04-17T10:10:33.863Z,10.84
2023-04-17T10:13:38.713Z,11.09
2023-04-17T10:16:42.736Z,11.15
2023-04-17T10:19:44.586Z,11.05
2023-04-17T10:22:54.201Z,11.17
2023-04-17T10:26:14.764Z,11.00
2023-04-17T10:29:16.459Z,10.85
2023-04-17T10:32:18.318Z,11.03
2023-04-17T10:35:33.967Z,11.27
2023-04-17T10:38:36.992Z,11.16
2023-04-17T10:42:01.591Z,11.00
2023-04-17T10:45:17.706Z,11.07
2023-04-17T10:48:26.656Z,11.20
2023-04-17T10:51:41.772Z,11.65
2023-04-17T10:54:58.290Z,12.06
2023-04-17T10:58:03.055Z,12.24
2023-04-17T11:01:09.362Z,12.48
2023-04-17T11:04:18.397Z,12.48
2023-04-17T11:07:20.166Z,12.54
2023-04-17T11:10:23.039Z,12.60
2023-04-17T11:13:31.467Z,12.02
2023-04-17T11:16:33.794Z,11.83
2023-04-17T11:19:35.738Z,11.46
2023-04-17T11:22:37.355Z,11.31
2023-04-17T11:25:40.168Z,11.37
2023-04-17T11:28:43.060Z,11.60
2023-04-17T11:31:45.165Z,11.56
2023-04-17T11:34:47.115Z,11.46
2023-04-17T11:38:08.255Z,11.56
2023-04-17T11:41:10.510Z,11.79
2023-04-17T11:44:13.717Z,11.53
2023-04-17T11:47:15.270Z,11.44
2023-04-17T11:50:17.004Z,11.31
2023-04-17T11:53:18.519Z,11.14
2023-04-17T11:56:21.187Z,11.20
2023-04-17T11:59:31.010Z,11.39
2023-04-17T12:02:33.759Z,11.85
2023-04-17T12:05:35.933Z,12.50
2023-04-17T12:08:45.138Z,12.98
2023-04-17T12:11:46.990Z,13.39
2023-04-17T12:14:49.852Z,13.09
2023-04-17T12:17:51.537Z,12.53
2023-04-17T12:20:53.124Z,12.23
2023-04-17T12:23:54.786Z,12.22
2023-04-17T12:26:57.200Z,12.28
2023-04-17T12:30:00.451Z,12.16
2023-04-17T12:33:02.226Z,12.40
2023-04-17T12:36:05.249Z,12.63
2023-04-17T12:39:06.857Z,12.48
2023-04-17T12:42:08.736Z,12.17
2023-04-17T12:45:11.772Z,12.08
2023-04-17T12:48:15.236Z,11.92
2023-04-17T12:51:16.885Z,11.71
2023-04-17T12:54:18.567Z,11.64
2023-04-17T12:57:20.865Z,11.74
2023-04-17T13:00:23.980Z,11.83
2023-04-17T13:03:25.923Z,11.78
2023-04-17T13:06:28.251Z,11.83
2023-04-17T13:09:29.769Z,11.83
2023-04-17T13:12:31.575Z,11.91
2023-04-17T13:15:34.994Z,11.97
2023-04-17T13:18:37.582Z,11.97
2023-04-17T13:21:39.245Z,11.93
2023-04-17T13:24:41.920Z,12.22
2023-04-17T13:27:43.735Z,12.34
2023-04-17T13:30:46.753Z,12.24
2023-04-17T13:33:49.056Z,12.21
2023-04-17T13:36:50.918Z,12.21
2023-04-17T13:39:52.773Z,12.21
2023-04-17T13:42:55.227Z,12.21
2023-04-17T13:45:58.323Z,12.34
2023-04-17T13:49:00.423Z,12.50
2023-04-17T13:52:05.372Z,12.49
2023-04-17T13:55:11.894Z,12.57
2023-04-17T13:58:13.525Z,12.65
2023-04-17T14:01:17.490Z,12.51
2023-04-17T14:04:19.281Z,12.47
2023-04-17T14:07:21.346Z,12.34
2023-04-17T14:10:23.329Z,12.33
2023-04-17T14:13:25.211Z,12.42
2023-04-17T14:16:28.467Z,12.38
2023-04-17T14:19:30.068Z,12.65
2023-04-17T14:22:31.619Z,13.37
2023-04-17T14:25:33.604Z,13.62
2023-04-17T14:28:35.143Z,13.13
2023-04-17T14:31:38.247Z,12.68
2023-04-17T14:34:40.071Z,12.57
2023-04-17T14:37:42.595Z,12.54
2023-04-17T14:40:44.182Z,12.53
2023-04-17T14:43:45.769Z,12.45
2023-04-17T14:46:48.969Z,12.41
2023-04-17T14:49:51.099Z,12.33
2023-04-17T14:52:52.847Z,12.36
2023-04-17T14:55:54.652Z,12.33
2023-04-17T14:58:56.188Z,12.23
2023-04-17T15:01:59.401Z,12.04
2023-04-17T15:05:01.017Z,12.04
2023-04-17T15:08:02.612Z,12.10
2023-04-17T15:11:04.244Z,12.18
2023-04-17T15:14:06.235Z,12.29
2023-04-17T15:17:09.637Z,12.33
2023-04-17T15:20:11.561Z,12.37
2023-04-17T15:23:13.172Z,12.30
2023-04-17T15:26:14.956Z,12.18
2023-04-17T15:29:16.522Z,12.11
2023-04-17T15:32:19.725Z,12.06
2023-04-17T15:35:21.610Z,12.03
2023-04-17T15:38:23.596Z,12.05
2023-04-17T15:41:25.416Z,12.04
2023-04-17T15:44:27.115Z,12.07
2023-04-17T15:47:30.139Z,12.16
2023-04-17T15:50:31.784Z,12.07
2023-04-17T15:53:33.344Z,12.02
2023-04-17T15:56:34.963Z,12.17
2023-04-17T15:59:36.598Z,12.39
2023-04-17T16:02:39.737Z,12.52
2023-04-17T16:05:41.739Z,12.71
2023-04-17T16:08:43.399Z,12.70
2023-04-17T16:11:45.098Z,12.55
2023-04-17T16:14:47.444Z,12.39
2023-04-17T16:17:50.552Z,12.24
2023-04-17T16:20:52.222Z,12.12
2023-04-17T16:23:53.975Z,12.04
2023-04-17T16:26:57.202Z,11.91
2023-04-17T16:29:59.045Z,11.78
2023-04-17T16:33:02.720Z,11.77
2023-04-17T16:36:04.618Z,11.88
2023-04-17T16:39:08.612Z,11.94
2023-04-17T16:42:10.560Z,11.98
2023-04-17T16:45:12.394Z,12.04
2023-04-17T16:48:16.198Z,12.02
2023-04-17T16:51:20.337Z,11.94
2023-04-17T16:54:25.851Z,11.86
2023-04-17T16:57:27.600Z,11.71
2023-04-17T17:00:32.607Z,11.58
2023-04-17T17:03:37.777Z,11.48
2023-04-17T17:06:39.529Z,11.44
2023-04-17T17:09:41.788Z,11.53
2023-04-17T17:12:43.864Z,11.46
2023-04-17T17:15:45.373Z,11.46
2023-04-17T17:18:49.563Z,11.48
2023-04-17T17:21:51.120Z,11.42
2023-04-17T17:24:53.019Z,11.39
2023-04-17T17:27:54.643Z,11.26
2023-04-17T17:31:00.605Z,11.18
2023-04-17T17:34:16.561Z,11.17
2023-04-17T17:37:25.692Z,11.11
2023-04-17T17:40:27.699Z,11.06
2023-04-17T17:43:30.160Z,11.00
2023-04-17T17:46:34.219Z,10.94
2023-04-17T17:49:38.419Z,10.89
2023-04-17T17:52:39.974Z,10.86
2023-04-17T17:55:41.712Z,10.84
2023-04-17T17:58:43.520Z,10.77
2023-04-17T18:01:45.509Z,10.69
2023-04-17T18:04:48.733Z,10.55
2023-04-17T18:07:50.618Z,10.48
2023-04-17T18:10:52.533Z,10.42
2023-04-17T18:13:54.146Z,10.33
2023-04-17T18:16:55.819Z,10.24
2023-04-17T18:19:58.797Z,10.21
2023-04-17T18:23:00.741Z,10.15
2023-04-17T18:26:03.070Z,10.11
2023-04-17T18:29:04.658Z,10.07
2023-04-17T18:32:06.420Z,10.03
2023-04-17T18:35:09.965Z,9.98
2023-04-17T18:38:12.029Z,9.98
2023-04-17T18:41:13.767Z,9.96
2023-04-17T18:44:16.294Z,10.01
2023-04-17T18:47:18.150Z,10.01
2023-04-17T18:50:21.473Z,10.01
2023-04-17T18:53:23.066Z,10.00
2023-04-17T18:56:24.879Z,9.97
2023-04-17T18:59:28.069Z,9.92
2023-04-17T19:02:30.007Z,9.82
2023-04-17T19:05:32.943Z,9.75
2023-04-17T19:08:34.925Z,9.71
2023-04-17T19:11:36.608Z,9.66
2023-04-17T19:14:38.205Z,9.68
2023-04-17T19:17:40.086Z,9.66
2023-04-17T19:20:43.052Z,9.61
2023-04-17T19:23:45.060Z,9.50
2023-04-17T19:26:48.105Z,9.39
2023-04-17T19:29:49.578Z,9.21
2023-04-17T19:32:51.201Z,9.10
2023-04-17T19:35:54.303Z,8.96
2023-04-17T19:38:59.141Z,8.87
2023-04-17T19:42:01.332Z,8.75
2023-04-17T19:45:02.866Z,8.67
2023-04-17T19:48:04.876Z,8.60
2023-04-17T19:51:07.866Z,8.51
2023-04-17T19:54:11.921Z,8.39
2023-04-17T19:57:13.653Z,8.31
2023-04-17T20:00:15.736Z,8.27
2023-04-17T20:03:18.456Z,8.20
2023-04-17T20:06:21.604Z,8.10
2023-04-17T20:09:23.371Z,8.00
2023-04-17T20:12:25.537Z,7.96
2023-04-17T20:15:27.445Z,7.89
2023-04-17T20:18:29.457Z,7.81
2023-04-17T20:21:32.604Z,7.75
2023-04-17T20:24:34.593Z,7.75
2023-04-17T20:27:36.157Z,7.70
2023-04-17T20:30:37.721Z,7.69
2023-04-17T20:33:39.373Z,7.62
2023-04-17T20:36:42.672Z,7.57
2023-04-17T20:39:44.409Z,7.52
2023-04-17T20:42:46.920Z,7.45
2023-04-17T20:45:49.373Z,7.39
2023-04-17T20:48:51.025Z,7.31
2023-04-17T20:51:54.152Z,7.24
2023-04-17T20:54:55.968Z,7.20
2023-04-17T20:57:57.418Z,7.12
2023-04-17T21:01:01.715Z,7.05
2023-04-17T21:04:03.516Z,6.95
2023-04-17T21:07:06.471Z,6.91
2023-04-17T21:10:09.247Z,6.80
2023-04-17T21:13:10.953Z,6.77
2023-04-17T21:16:13.961Z,6.69
2023-04-17T21:19:15.639Z,6.63
2023-04-17T21:22:18.748Z,6.58
2023-04-17T21:25:20.251Z,6.57
2023-04-17T21:28:22.058Z,6.52
2023-04-17T21:31:24.453Z,6.50
2023-04-17T21:34:26.188Z,6.50
2023-04-17T21:37:29.201Z,6.47
2023-04-17T21:40:33.458Z,6.44
2023-04-17T21:43:36.030Z,6.38
2023-04-17T21:46:37.812Z,6.38
2023-04-17T21:49:39.830Z,6.31
2023-04-17T21:52:42.718Z,6.28
2023-04-17T21:55:44.914Z,6.28
2023-04-17T21:58:46.461Z,6.20
2023-04-17T22:01:48.258Z,6.16
2023-04-17T22:04:50.003Z,6.16
2023-04-17T22:07:55.292Z,6.10
2023-04-17T22:10:57.119Z,6.08
2023-04-17T22:13:58.664Z,6.05
2023-04-17T22:17:00.432Z,5.99
2023-04-17T22:20:02.173Z,5.92
2023-04-17T22:23:05.178Z,5.86
2023-04-17T22:26:06.734Z,5.84
2023-04-17T22:29:08.288Z,5.86
2023-04-17T22:32:09.866Z,5.80
2023-04-17T22:35:11.771Z,5.79
2023-04-17T22:38:14.678Z,5.77
2023-04-17T22:41:16.187Z,5.73
2023-04-17T22:44:17.709Z,5.71
2023-04-17T22:47:19.396Z,5.64
2023-04-17T22:50:21.821Z,5.66
2023-04-17T22:53:24.950Z,5.62
2023-04-17T22:56:26.666Z,5.61
2023-04-17T22:59:28.441Z,5.61
2023-04-17T23:02:30.020Z,5.60
2023-04-17T23:05:32.065Z,5.61
2023-04-17T23:08:34.893Z,5.60
2023-04-17T23:11:36.501Z,5.55
2023-04-17T23:14:38.096Z,5.56
2023-04-17T23:17:39.774Z,5.52
2023-04-17T23:20:41.896Z,5.51
2023-04-17T23:23:48.168Z,5.49
2023-04-17T23:26:50.355Z,5.50
2023-04-17T23:29:51.951Z,5.48
2023-04-17T23:32:54.434Z,5.49
2023-04-17T23:35:55.983Z,5.52
2023-04-17T23:39:00.321Z,5.52
2023-04-17T23:42:07.000Z,5.55
2023-04-17T23:45:09.001Z,5.58
2023-04-17T23:48:10.765Z,5.61
2023-04-17T23:51:12.450Z,5.63
2023-04-17T23:54:15.748Z,5.67
2023-04-17T23:57:17.585Z,5.66
